This is the latest recevied weather packets stored in our database for station/object CX2SA-13. If no packets are shown the sender has not sent any weather packets the latest 10 day(s).
| Time | Temp. | Humidity | Pressure | Rain* | Wind** | Luminosity | Snow |
|---|---|---|---|---|---|---|---|
| 1778096685 | 28.89° C | 77% | 1003 hPa | 0 mm | - | - | - |
| 1778095784 | 28.89° C | 77% | 1003 hPa | 0 mm | - | - | - |
| 1778094885 | 28.33° C | 79% | 1003 hPa | 0 mm | - | - | - |
| 1778093986 | 28.33° C | 79% | 1003.7 hPa | 0 mm | - | - | - |
| 1778093084 | 28.33° C | 79% | 1003.7 hPa | 0 mm | - | - | - |
| 1778092185 | 27.78° C | 80% | 1004 hPa | 0 mm | - | - | - |
| 1778091284 | 27.78° C | 80% | 1004.4 hPa | 0 mm | - | - | - |
| 1778090384 | 28.33° C | 79% | 1004.4 hPa | 0 mm | - | - | - |
| 1778089485 | 28.33° C | 77% | 1004.4 hPa | 0 mm | - | - | - |
| 1778088584 | 28.33° C | 77% | 1004.7 hPa | 0 mm | - | - | - |
| 1778087685 | 28.89° C | 76% | 1005 hPa | 0 mm | - | - | - |
| 1778086785 | 28.33° C | 77% | 1005.4 hPa | 0 mm | - | - | - |
| 1778085884 | 28.89° C | 76% | 1005.7 hPa | 0 mm | - | - | - |
| 1778084985 | 28.89° C | 77% | 1006.1 hPa | 0 mm | - | - | - |
| 1778084083 | 28.33° C | 78% | 1006.4 hPa | 0 mm | - | - | - |
| 1778083184 | 28.33° C | 77% | 1006.7 hPa | 0 mm | - | - | - |
| 1778082285 | 27.78° C | 79% | 1006.7 hPa | 0 mm | - | - | - |
| 1778081384 | 28.33° C | 78% | 1007.7 hPa | 0 mm | - | - | - |
| 1778080485 | 28.89° C | 77% | 1007.7 hPa | 0 mm | - | - | - |
| 1778079585 | 27.78° C | 80% | 1007.7 hPa | 0 mm | - | - | - |
| 1778078684 | 27.78° C | 81% | 1008.1 hPa | 0 mm | - | - | - |
| 1778077785 | 27.78° C | 81% | 1008.4 hPa | 0 mm | - | - | - |
| 1778076885 | 27.22° C | 83% | 1008.8 hPa | 0 mm | - | - | - |
| 1778075984 | 25.56° C | 87% | 1009.1 hPa | 0 mm | - | - | - |
| 1778075085 | 25.56° C | 87% | 1009.4 hPa | 0 mm | - | - | - |
* Rain since midnight (hover to see other rain measurements)
** Current wind speed in m/s (hover to see current wind gust speed)